Time;durP1;ratioP1;P1;durP2;ratioP2;P2;SDS_P1;SDS_P2;PMS_P1;PMS_P2;Temp;Humidity;BMP_temperature;BMP_pressure;BME280_temperature;BME280_humidity;BME280_pressure;Samples;Min_cycle;Max_cycle;Signal;HPM_P1;HPM_P2
2023/04/19 00:00:46;;;;;;;0.10;0.10;;;;;;;;;;5015923;28;20046;-75
2023/04/19 00:03:13;;;;;;;0.10;0.10;;;;;;;;;;5016914;28;20025;-74
2023/04/19 00:05:38;;;;;;;0.10;0.10;;;;;;;;;;5013585;28;20385;-75
2023/04/19 00:08:07;;;;;;;0.65;0.65;;;;;;;;;;5010932;28;20042;-74
2023/04/19 00:10:34;;;;;;;0.10;0.10;;;;;;;;;;5016500;28;20053;-74
2023/04/19 00:13:00;;;;;;;0.55;0.55;;;;;;;;;;5016393;28;20030;-74
2023/04/19 00:15:25;;;;;;;0.15;0.15;;;;;;;;;;5010037;28;20034;-75
2023/04/19 00:17:51;;;;;;;0.13;0.13;;;;;;;;;;5005170;28;20042;-74
2023/04/19 00:20:16;;;;;;;0.10;0.10;;;;;;;;;;4983437;28;20378;-74
2023/04/19 00:22:41;;;;;;;2.08;1.95;;;;;;;;;;5015076;28;20037;-74
2023/04/19 00:25:07;;;;;;;0.10;0.10;;;;;;;;;;4997811;28;20037;-75
2023/04/19 00:27:32;;;;;;;0.10;0.10;;;;;;;;;;5016235;28;20088;-75
2023/04/19 00:29:58;;;;;;;1.38;1.20;;;;;;;;;;5000695;28;20042;-76
2023/04/19 00:32:23;;;;;;;0.10;0.10;;;;;;;;;;5001520;28;20389;-75
2023/04/19 00:34:49;;;;;;;0.10;0.10;;;;;;;;;;5019605;28;20065;-75
2023/04/19 00:37:15;;;;;;;0.10;0.10;;;;;;;;;;4982870;28;20058;-74
2023/04/19 00:39:40;;;;;;;0.15;0.15;;;;;;;;;;4999135;28;20034;-74
2023/04/19 00:42:05;;;;;;;0.70;0.50;;;;;;;;;;5016495;28;20112;-74
2023/04/19 00:44:31;;;;;;;1.08;1.05;;;;;;;;;;5016168;28;20045;-74
2023/04/19 00:46:56;;;;;;;0.15;0.15;;;;;;;;;;4997967;28;20034;-75
2023/04/19 00:49:23;;;;;;;4.03;2.30;;;;;;;;;;5015238;28;20429;-75
2023/04/19 00:51:49;;;;;;;0.30;0.30;;;;;;;;;;4997302;28;20095;-76
2023/04/19 00:54:14;;;;;;;0.17;0.17;;;;;;;;;;4997419;28;20030;-75
2023/04/19 00:56:40;;;;;;;3.33;1.00;;;;;;;;;;5016062;28;20026;-75
2023/04/19 00:59:06;;;;;;;0.43;0.43;;;;;;;;;;5015740;28;20535;-74
2023/04/19 01:01:32;;;;;;;0.43;0.43;;;;;;;;;;4997682;28;20120;-75
2023/04/19 01:03:59;;;;;;;0.25;0.25;;;;;;;;;;5015098;28;20037;-75
2023/04/19 01:06:26;;;;;;;0.63;0.63;;;;;;;;;;5015811;28;20037;-74
2023/04/19 01:08:52;;;;;;;0.10;0.10;;;;;;;;;;5014154;28;20048;-74
2023/04/19 01:11:17;;;;;;;0.25;0.25;;;;;;;;;;5015621;28;20029;-76
2023/04/19 01:13:43;;;;;;;0.30;0.30;;;;;;;;;;4981880;28;20041;-75
2023/04/19 01:16:09;;;;;;;1.27;1.17;;;;;;;;;;5015487;28;20038;-75
2023/04/19 01:18:36;;;;;;;0.13;0.13;;;;;;;;;;5015658;28;20044;-75
2023/04/19 01:21:03;;;;;;;0.30;0.30;;;;;;;;;;4997600;28;20068;-74
2023/04/19 01:23:29;;;;;;;0.60;0.55;;;;;;;;;;4995134;28;20061;-75
2023/04/19 01:25:54;;;;;;;0.35;0.35;;;;;;;;;;4995599;28;20030;-74
2023/04/19 01:28:20;;;;;;;0.30;0.30;;;;;;;;;;4995519;28;20064;-74
2023/04/19 01:30:52;;;;;;;0.10;0.10;;;;;;;;;;4995282;28;20037;-74
2023/04/19 01:33:18;;;;;;;;;;;;;;;;;;5013710;28;20037;-74
2023/04/19 01:35:43;;;;;;;0.10;0.10;;;;;;;;;;5012459;28;20013;-74
2023/04/19 01:38:09;;;;;;;0.10;0.10;;;;;;;;;;4994150;28;20061;-73
2023/04/19 01:40:34;;;;;;;0.10;0.10;;;;;;;;;;4997449;28;20045;-74
2023/04/19 01:43:00;;;;;;;0.10;0.10;;;;;;;;;;5014778;28;20048;-73
2023/04/19 01:45:25;;;;;;;0.10;0.10;;;;;;;;;;4980419;28;20092;-75
2023/04/19 01:47:51;;;;;;;0.50;0.50;;;;;;;;;;5014949;28;20061;-75
2023/04/19 01:50:16;;;;;;;1.38;1.27;;;;;;;;;;4997315;28;20073;-74
2023/04/19 01:52:42;;;;;;;0.20;0.20;;;;;;;;;;4997247;28;20037;-74
2023/04/19 01:55:07;;;;;;;0.17;0.17;;;;;;;;;;4997131;28;20026;-73
2023/04/19 01:57:34;;;;;;;0.10;0.10;;;;;;;;;;5011072;28;20045;-76
2023/04/19 02:00:00;;;;;;;0.43;0.40;;;;;;;;;;4996775;28;20433;-77
2023/04/19 02:02:25;;;;;;;0.10;0.10;;;;;;;;;;4997302;28;20022;-74
2023/04/19 02:04:51;;;;;;;0.20;0.20;;;;;;;;;;5014811;28;20125;-75
2023/04/19 02:07:16;;;;;;;0.10;0.10;;;;;;;;;;5013435;28;20038;-74
2023/04/19 02:09:41;;;;;;;0.10;0.10;;;;;;;;;;4996782;28;20095;-73
2023/04/19 02:12:08;;;;;;;0.10;0.10;;;;;;;;;;4980779;28;20116;-74
2023/04/19 02:14:34;;;;;;;0.10;0.10;;;;;;;;;;5014563;28;20037;-74
2023/04/19 02:16:59;;;;;;;1.17;1.17;;;;;;;;;;4980474;28;20055;-74
2023/04/19 02:19:24;;;;;;;0.95;0.95;;;;;;;;;;4996807;28;20446;-74
2023/04/19 02:21:50;;;;;;;0.20;0.20;;;;;;;;;;4996263;28;20037;-73
2023/04/19 02:24:16;;;;;;;0.13;0.13;;;;;;;;;;5012971;28;20026;-74
2023/04/19 02:26:41;;;;;;;0.10;0.10;;;;;;;;;;4995930;28;20030;-72
2023/04/19 02:29:06;;;;;;;0.10;0.10;;;;;;;;;;4996433;28;20122;-72
2023/04/19 02:31:32;;;;;;;0.10;0.10;;;;;;;;;;5013851;28;20536;-74
2023/04/19 02:33:58;;;;;;;0.10;0.10;;;;;;;;;;5014228;28;20038;-74
2023/04/19 02:36:25;;;;;;;0.10;0.10;;;;;;;;;;4995429;28;20026;-74
2023/04/19 02:38:50;;;;;;;0.10;0.10;;;;;;;;;;5011578;28;20559;-73
2023/04/19 02:41:18;;;;;;;0.10;0.10;;;;;;;;;;4996328;28;20064;-74
2023/04/19 02:43:44;;;;;;;0.20;0.20;;;;;;;;;;5013792;28;20389;-74
2023/04/19 02:46:11;;;;;;;0.90;0.90;;;;;;;;;;5012885;28;20378;-73
2023/04/19 02:48:36;;;;;;;0.20;0.20;;;;;;;;;;4999343;28;20030;-73
2023/04/19 02:51:02;;;;;;;0.05;0.05;;;;;;;;;;5017589;28;20060;-74
2023/04/19 02:53:32;;;;;;;0.10;0.10;;;;;;;;;;4998770;28;20460;-74
2023/04/19 02:55:57;;;;;;;0.10;0.10;;;;;;;;;;4995670;28;20113;-74
2023/04/19 02:58:23;;;;;;;0.10;0.10;;;;;;;;;;4995961;28;20134;-74
2023/04/19 03:01:00;;;;;;;1.45;1.38;;;;;;;;;;4982026;28;20461;-74
2023/04/19 03:03:25;;;;;;;0.57;0.57;;;;;;;;;;4991503;28;20065;-74
2023/04/19 03:05:51;;;;;;;0.10;0.10;;;;;;;;;;4992778;28;20057;-75
2023/04/19 03:08:17;;;;;;;0.10;0.10;;;;;;;;;;4990695;28;20037;-74
2023/04/19 03:10:43;;;;;;;1.17;0.47;;;;;;;;;;4992402;28;20045;-74
2023/04/19 03:13:09;;;;;;;0.20;0.20;;;;;;;;;;5009819;28;20108;-75
2023/04/19 03:15:34;;;;;;;0.20;0.20;;;;;;;;;;4993126;28;20121;-75
2023/04/19 03:18:00;;;;;;;0.52;0.50;;;;;;;;;;4999026;28;20057;-75
2023/04/19 03:20:27;;;;;;;0.10;0.10;;;;;;;;;;4998779;28;20088;-77
2023/04/19 03:22:52;;;;;;;0.30;0.30;;;;;;;;;;4999158;28;20030;-78
2023/04/19 03:25:18;;;;;;;1.17;1.13;;;;;;;;;;4998718;28;20172;-77
2023/04/19 03:27:51;;;;;;;0.10;0.10;;;;;;;;;;4999285;28;20041;-76
2023/04/19 03:30:24;;;;;;;0.30;0.30;;;;;;;;;;4998013;28;20046;-80
2023/04/19 03:32:50;;;;;;;0.15;0.15;;;;;;;;;;4998366;28;20112;-75
2023/04/19 03:35:16;;;;;;;0.38;0.38;;;;;;;;;;5015107;28;20119;-74
2023/04/19 03:37:42;;;;;;;0.20;0.20;;;;;;;;;;4997102;28;20056;-74
2023/04/19 03:40:09;;;;;;;0.22;0.22;;;;;;;;;;4998540;28;20083;-75
2023/04/19 03:42:35;;;;;;;1.25;1.15;;;;;;;;;;4998262;28;20033;-74
2023/04/19 03:45:23;;;;;;;0.32;0.32;;;;;;;;;;5015252;28;20033;-73
2023/04/19 03:47:49;;;;;;;0.30;0.30;;;;;;;;;;4981838;28;20041;-77
2023/04/19 03:50:15;;;;;;;0.17;0.17;;;;;;;;;;4997437;28;20034;-76
2023/04/19 03:52:44;;;;;;;0.10;0.10;;;;;;;;;;4997314;28;20045;-75
2023/04/19 03:55:12;;;;;;;0.10;0.10;;;;;;;;;;4997576;28;20537;-76
2023/04/19 03:57:39;;;;;;;0.90;0.90;;;;;;;;;;4998355;28;20038;-76
2023/04/19 04:00:26;;;;;;;0.10;0.10;;;;;;;;;;4995987;28;20502;-76
2023/04/19 04:02:56;;;;;;;0.40;0.40;;;;;;;;;;4997573;28;20393;-76
2023/04/19 04:05:22;;;;;;;0.10;0.10;;;;;;;;;;4996455;28;20172;-77
2023/04/19 04:07:48;;;;;;;2.78;1.40;;;;;;;;;;4997024;28;20503;-75
2023/04/19 04:10:13;;;;;;;0.10;0.10;;;;;;;;;;4995617;28;20572;-73
2023/04/19 04:12:41;;;;;;;0.20;0.20;;;;;;;;;;4996027;28;20490;-75
2023/04/19 04:15:09;;;;;;;0.10;0.10;;;;;;;;;;4995711;28;20211;-77
2023/04/19 04:17:39;;;;;;;0.25;0.25;;;;;;;;;;4997989;28;20091;-76
2023/04/19 04:20:07;;;;;;;0.10;0.10;;;;;;;;;;4998081;28;20041;-76
2023/04/19 04:22:34;;;;;;;0.10;0.10;;;;;;;;;;4997385;28;20026;-76
2023/04/19 04:25:01;;;;;;;0.10;0.10;;;;;;;;;;5014438;28;20044;-76
2023/04/19 04:27:32;;;;;;;0.10;0.10;;;;;;;;;;4996160;28;20038;-76
2023/04/19 04:30:00;;;;;;;0.95;0.95;;;;;;;;;;4993569;28;20037;-76
2023/04/19 04:32:27;;;;;;;0.10;0.10;;;;;;;;;;4994023;28;20104;-77
2023/04/19 04:34:57;;;;;;;0.30;0.30;;;;;;;;;;4993261;28;20036;-78
2023/04/19 04:37:36;;;;;;;0.15;0.15;;;;;;;;;;4994864;28;20025;-75
2023/04/19 04:40:06;;;;;;;0.10;0.10;;;;;;;;;;4994651;28;20115;-77
2023/04/19 04:42:33;;;;;;;0.13;0.13;;;;;;;;;;4993639;28;20029;-76
2023/04/19 04:45:00;;;;;;;0.10;0.10;;;;;;;;;;4994363;28;20034;-75
2023/04/19 04:47:31;;;;;;;0.13;0.13;;;;;;;;;;4991977;28;20034;-75
2023/04/19 04:49:58;;;;;;;0.57;0.57;;;;;;;;;;4975031;28;20426;-76
2023/04/19 04:52:23;;;;;;;0.10;0.10;;;;;;;;;;4991171;28;20060;-79
2023/04/19 04:54:57;;;;;;;0.10;0.10;;;;;;;;;;4988322;28;20033;-77
2023/04/19 04:57:28;;;;;;;0.10;0.10;;;;;;;;;;4994720;28;20433;-77
2023/04/19 04:59:55;;;;;;;0.20;0.20;;;;;;;;;;5012124;28;20034;-77
2023/04/19 05:02:22;;;;;;;0.20;0.20;;;;;;;;;;4992874;28;20064;-76
2023/04/19 05:04:50;;;;;;;0.35;0.35;;;;;;;;;;4988186;28;20034;-78
2023/04/19 05:07:15;;;;;;;0.10;0.10;;;;;;;;;;4990817;28;20125;-79
2023/04/19 05:09:41;;;;;;;0.10;0.10;;;;;;;;;;4989269;28;20038;-78
2023/04/19 05:12:07;;;;;;;0.10;0.10;;;;;;;;;;4977724;28;20027;-77
2023/04/19 05:14:32;;;;;;;0.10;0.10;;;;;;;;;;4974705;28;20209;-77
2023/04/19 05:16:58;;;;;;;0.17;0.17;;;;;;;;;;4993155;28;20057;-76
2023/04/19 05:19:23;;;;;;;0.85;0.85;;;;;;;;;;5011872;28;20097;-75
2023/04/19 05:21:55;;;;;;;0.28;0.28;;;;;;;;;;4989964;28;20037;-80
2023/04/19 05:24:21;;;;;;;0.10;0.10;;;;;;;;;;4977786;28;20118;-77
2023/04/19 05:26:48;;;;;;;0.10;0.10;;;;;;;;;;4993683;28;20457;-76
2023/04/19 05:29:14;;;;;;;0.10;0.10;;;;;;;;;;4987951;28;20034;-76
2023/04/19 05:31:48;;;;;;;0.13;0.13;;;;;;;;;;4992579;28;20104;-76
2023/04/19 05:34:27;;;;;;;0.17;0.17;;;;;;;;;;4984815;28;20034;-77
2023/04/19 05:36:55;;;;;;;0.10;0.10;;;;;;;;;;4992955;28;20453;-77
2023/04/19 05:39:20;;;;;;;0.73;0.73;;;;;;;;;;4991343;28;20057;-77
2023/04/19 05:41:46;;;;;;;0.45;0.45;;;;;;;;;;4991616;28;20873;-76
2023/04/19 05:44:11;;;;;;;0.10;0.10;;;;;;;;;;4991674;28;20030;-78
2023/04/19 05:46:37;;;;;;;0.10;0.10;;;;;;;;;;4989635;28;20041;-76
2023/04/19 05:49:03;;;;;;;0.10;0.10;;;;;;;;;;4982364;28;20033;-77
2023/04/19 05:51:29;;;;;;;0.13;0.13;;;;;;;;;;4989725;28;20050;-76
2023/04/19 05:54:00;;;;;;;0.25;0.25;;;;;;;;;;4981963;28;20026;-77
2023/04/19 05:56:25;;;;;;;0.10;0.10;;;;;;;;;;5005741;28;20393;-75
2023/04/19 05:58:50;;;;;;;0.55;0.55;;;;;;;;;;4982354;28;20488;-76
2023/04/19 06:01:16;;;;;;;0.10;0.10;;;;;;;;;;4991206;28;20038;-76
2023/04/19 06:03:42;;;;;;;0.10;0.10;;;;;;;;;;4974116;28;20031;-76
2023/04/19 06:06:07;;;;;;;0.20;0.20;;;;;;;;;;4991394;28;20161;-75
2023/04/19 06:08:33;;;;;;;0.10;0.10;;;;;;;;;;4973948;28;20247;-75
2023/04/19 06:10:59;;;;;;;0.10;0.10;;;;;;;;;;4990957;28;20112;-74
2023/04/19 06:13:24;;;;;;;0.52;0.52;;;;;;;;;;4973378;28;20093;-75
2023/04/19 06:15:50;;;;;;;0.30;0.30;;;;;;;;;;4977210;28;20044;-75
2023/04/19 06:18:16;;;;;;;0.43;0.43;;;;;;;;;;5005944;28;20029;-75
2023/04/19 06:20:41;;;;;;;0.10;0.10;;;;;;;;;;5010522;28;20065;-75
2023/04/19 06:23:07;;;;;;;0.10;0.10;;;;;;;;;;5010464;28;20069;-75
2023/04/19 06:25:32;;;;;;;0.10;0.10;;;;;;;;;;5006967;28;20480;-75
2023/04/19 06:27:57;;;;;;;0.20;0.20;;;;;;;;;;5000271;28;20038;-77
2023/04/19 06:30:23;;;;;;;0.10;0.10;;;;;;;;;;4978605;28;20038;-75
2023/04/19 06:32:49;;;;;;;0.20;0.20;;;;;;;;;;4993210;28;20414;-76
2023/04/19 06:35:14;;;;;;;0.25;0.25;;;;;;;;;;4993001;28;20049;-75
2023/04/19 06:37:40;;;;;;;0.95;0.93;;;;;;;;;;4999655;28;20038;-76
2023/04/19 06:40:07;;;;;;;0.10;0.10;;;;;;;;;;5007973;28;20040;-77
2023/04/19 06:42:36;;;;;;;0.10;0.10;;;;;;;;;;4960599;28;20029;-77
2023/04/19 06:45:01;;;;;;;0.30;0.30;;;;;;;;;;5000351;28;20815;-77
2023/04/19 06:47:27;;;;;;;0.10;0.10;;;;;;;;;;4990614;28;20054;-79
2023/04/19 06:49:53;;;;;;;0.10;0.10;;;;;;;;;;4990516;28;20031;-76
2023/04/19 06:52:18;;;;;;;0.20;0.20;;;;;;;;;;4989889;28;20042;-76
2023/04/19 06:54:48;;;;;;;0.20;0.20;;;;;;;;;;4990485;28;20073;-77
2023/04/19 06:57:13;;;;;;;;;;;;;;;;;;4991274;28;20038;-76
2023/04/19 06:59:38;;;;;;;0.20;0.20;;;;;;;;;;4990787;28;19918;-76
2023/04/19 07:02:04;;;;;;;0.25;0.25;;;;;;;;;;4992272;28;20164;-76
2023/04/19 07:04:30;;;;;;;0.20;0.20;;;;;;;;;;4980769;28;20084;-75
2023/04/19 07:06:55;;;;;;;0.10;0.10;;;;;;;;;;4995217;28;20042;-77
2023/04/19 07:09:21;;;;;;;0.20;0.20;;;;;;;;;;4999758;28;20030;-70
2023/04/19 07:11:47;;;;;;;0.25;0.25;;;;;;;;;;4981645;28;20042;-70
2023/04/19 07:14:12;;;;;;;0.20;0.20;;;;;;;;;;4986083;28;20038;-69
2023/04/19 07:16:38;;;;;;;0.20;0.20;;;;;;;;;;5001154;28;20033;-69
2023/04/19 07:19:03;;;;;;;0.40;0.40;;;;;;;;;;4996316;28;20038;-69
2023/04/19 07:21:32;;;;;;;2.33;1.60;;;;;;;;;;4994099;28;20453;-69
2023/04/19 07:23:57;;;;;;;0.77;0.63;;;;;;;;;;4974305;28;20068;-70
2023/04/19 07:26:23;;;;;;;0.20;0.20;;;;;;;;;;5007425;28;20081;-70
2023/04/19 07:28:49;;;;;;;0.30;0.30;;;;;;;;;;5007812;28;20389;-69
2023/04/19 07:31:17;;;;;;;0.20;0.20;;;;;;;;;;5000616;28;20038;-69
2023/04/19 07:33:43;;;;;;;3.72;2.55;;;;;;;;;;5005062;28;20544;-70
2023/04/19 07:36:08;;;;;;;0.35;0.35;;;;;;;;;;4983392;28;20058;-71
2023/04/19 07:38:34;;;;;;;0.20;0.20;;;;;;;;;;5003782;28;20034;-70
2023/04/19 07:41:00;;;;;;;0.73;0.73;;;;;;;;;;4972885;28;20382;-68
2023/04/19 07:43:25;;;;;;;1.10;0.73;;;;;;;;;;5005740;28;20037;-70
2023/04/19 07:45:51;;;;;;;0.20;0.20;;;;;;;;;;5007882;28;20457;-68
2023/04/19 07:48:17;;;;;;;1.80;1.15;;;;;;;;;;5008391;28;20026;-67
2023/04/19 07:50:42;;;;;;;0.68;0.60;;;;;;;;;;5006289;28;20386;-68
2023/04/19 07:53:08;;;;;;;0.43;0.43;;;;;;;;;;5007230;28;20030;-68
2023/04/19 07:55:34;;;;;;;0.20;0.20;;;;;;;;;;4987198;28;20062;-68
2023/04/19 07:58:00;;;;;;;0.20;0.20;;;;;;;;;;5004668;28;20026;-69
2023/04/19 08:00:26;;;;;;;0.20;0.20;;;;;;;;;;4971663;28;20478;-72
2023/04/19 08:02:51;;;;;;;0.28;0.28;;;;;;;;;;4991323;28;20038;-70
2023/04/19 08:05:17;;;;;;;0.20;0.20;;;;;;;;;;4995495;28;20049;-68
2023/04/19 08:07:42;;;;;;;0.20;0.20;;;;;;;;;;5005450;28;20033;-67
2023/04/19 08:10:08;;;;;;;0.60;0.60;;;;;;;;;;5011621;28;20042;-70
2023/04/19 08:12:33;;;;;;;0.30;0.30;;;;;;;;;;5006855;28;20113;-70
2023/04/19 08:14:59;;;;;;;0.28;0.28;;;;;;;;;;5006441;28;20454;-72
2023/04/19 08:17:25;;;;;;;0.75;0.52;;;;;;;;;;5010847;28;20105;-69
2023/04/19 08:19:51;;;;;;;0.38;0.38;;;;;;;;;;5010223;28;20096;-68
2023/04/19 08:22:16;;;;;;;0.20;0.20;;;;;;;;;;5008537;28;20033;-73
2023/04/19 08:24:42;;;;;;;0.20;0.20;;;;;;;;;;5003971;28;20038;-72
2023/04/19 08:27:08;;;;;;;0.20;0.20;;;;;;;;;;4991637;28;20031;-74
2023/04/19 08:29:34;;;;;;;0.20;0.20;;;;;;;;;;5009950;28;20132;-75
2023/04/19 08:32:00;;;;;;;0.30;0.30;;;;;;;;;;4993322;28;20128;-74
2023/04/19 08:34:26;;;;;;;0.30;0.30;;;;;;;;;;5010864;28;20557;-76
2023/04/19 08:36:52;;;;;;;0.20;0.20;;;;;;;;;;4984564;28;20049;-74
2023/04/19 08:39:18;;;;;;;0.20;0.20;;;;;;;;;;5008120;28;20072;-75
2023/04/19 08:41:43;;;;;;;0.20;0.20;;;;;;;;;;5002154;28;20085;-74
2023/04/19 08:44:10;;;;;;;0.30;0.30;;;;;;;;;;5003339;28;20888;-76
2023/04/19 08:46:36;;;;;;;0.30;0.30;;;;;;;;;;4981404;28;20033;-76
2023/04/19 08:49:03;;;;;;;0.63;0.63;;;;;;;;;;5005188;28;20033;-76
2023/04/19 08:51:30;;;;;;;0.52;0.50;;;;;;;;;;4991057;28;20046;-74
2023/04/19 08:53:56;;;;;;;0.30;0.30;;;;;;;;;;5008498;28;20589;-74
2023/04/19 08:56:22;;;;;;;1.38;0.63;;;;;;;;;;4999932;28;20030;-79
2023/04/19 08:58:48;;;;;;;6.32;3.20;;;;;;;;;;5000598;28;20030;-73
2023/04/19 09:01:13;;;;;;;2.95;2.10;;;;;;;;;;5003280;28;20022;-74
2023/04/19 09:03:44;;;;;;;1.00;1.00;;;;;;;;;;4996608;28;20041;-77
2023/04/19 09:06:10;;;;;;;1.05;0.98;;;;;;;;;;5002309;28;20034;-74
2023/04/19 09:08:37;;;;;;;3.88;2.15;;;;;;;;;;4998763;28;20506;-77
2023/04/19 09:11:02;;;;;;;2.90;1.40;;;;;;;;;;4991510;28;20034;-73
2023/04/19 09:13:28;;;;;;;2.05;1.67;;;;;;;;;;4991207;28;20084;-77
2023/04/19 09:15:55;;;;;;;0.50;0.40;;;;;;;;;;4991618;28;20034;-77
2023/04/19 09:18:21;;;;;;;4.85;2.78;;;;;;;;;;4994235;28;20386;-74
2023/04/19 09:20:47;;;;;;;1.83;1.42;;;;;;;;;;5005844;28;20026;-74
2023/04/19 09:23:14;;;;;;;0.22;0.22;;;;;;;;;;5010620;28;20493;-73
2023/04/19 09:25:39;;;;;;;0.55;0.55;;;;;;;;;;4991448;28;20076;-76
2023/04/19 09:28:11;;;;;;;0.50;0.50;;;;;;;;;;4991561;28;20053;-75
2023/04/19 09:30:37;;;;;;;1.50;1.20;;;;;;;;;;4990437;28;20034;-76
2023/04/19 09:33:02;;;;;;;2.08;1.63;;;;;;;;;;4991365;28;20081;-76
2023/04/19 09:35:41;;;;;;;4.80;2.58;;;;;;;;;;4985487;28;20046;-76
2023/04/19 09:38:07;;;;;;;0.65;0.65;;;;;;;;;;4986547;28;20039;-75
2023/04/19 09:40:32;;;;;;;0.40;0.40;;;;;;;;;;5004878;28;20037;-75
2023/04/19 09:42:58;;;;;;;1.10;1.00;;;;;;;;;;5009189;28;20075;-75
2023/04/19 09:45:23;;;;;;;1.08;0.73;;;;;;;;;;5009150;28;20084;-72
2023/04/19 09:48:02;;;;;;;0.52;0.52;;;;;;;;;;5009160;28;20057;-75
2023/04/19 09:50:27;;;;;;;0.20;0.20;;;;;;;;;;5009188;28;20041;-74
2023/04/19 09:52:53;;;;;;;0.30;0.30;;;;;;;;;;5009289;28;20014;-73
2023/04/19 09:55:18;;;;;;;0.25;0.25;;;;;;;;;;5010165;28;20466;-73
2023/04/19 09:57:44;;;;;;;0.45;0.45;;;;;;;;;;5009028;28;20033;-77
2023/04/19 10:00:12;;;;;;;0.68;0.68;;;;;;;;;;5010333;28;20120;-73
2023/04/19 10:02:39;;;;;;;1.35;1.00;;;;;;;;;;5008386;28;20045;-74
2023/04/19 10:05:05;;;;;;;0.63;0.63;;;;;;;;;;5009775;28;20042;-76
2023/04/19 10:07:31;;;;;;;0.20;0.20;;;;;;;;;;5000833;28;20091;-75
2023/04/19 10:09:57;;;;;;;1.60;1.20;;;;;;;;;;5003788;28;20538;-73
2023/04/19 10:12:24;;;;;;;2.05;1.42;;;;;;;;;;5007884;28;20022;-72
2023/04/19 10:14:50;;;;;;;2.00;1.50;;;;;;;;;;5008578;28;20108;-74
2023/04/19 10:17:15;;;;;;;2.97;1.65;;;;;;;;;;4990419;28;20698;-74
2023/04/19 10:19:42;;;;;;;2.30;1.60;;;;;;;;;;5001323;28;20042;-71
2023/04/19 10:22:08;;;;;;;0.88;0.80;;;;;;;;;;5001462;28;20486;-74
2023/04/19 10:24:33;;;;;;;0.88;0.60;;;;;;;;;;4990970;28;20040;-72
2023/04/19 10:27:02;;;;;;;1.35;0.90;;;;;;;;;;5008298;28;20038;-74
2023/04/19 10:29:46;;;;;;;0.20;0.20;;;;;;;;;;4992449;28;20037;-74
2023/04/19 10:32:12;;;;;;;3.20;1.88;;;;;;;;;;4991404;28;20038;-74
2023/04/19 10:34:41;;;;;;;0.38;0.38;;;;;;;;;;4992242;28;20038;-75
2023/04/19 10:37:09;;;;;;;0.70;0.70;;;;;;;;;;4993462;28;20157;-76
2023/04/19 10:39:39;;;;;;;0.67;0.67;;;;;;;;;;4990171;28;20304;-72
2023/04/19 10:42:05;;;;;;;2.83;1.83;;;;;;;;;;4989743;28;20034;-73
2023/04/19 10:44:30;;;;;;;1.67;1.27;;;;;;;;;;4990041;28;20045;-73
2023/04/19 10:46:57;;;;;;;4.13;1.60;;;;;;;;;;4990207;28;20038;-76
2023/04/19 10:49:22;;;;;;;3.88;2.33;;;;;;;;;;4989522;28;20034;-74
2023/04/19 10:51:54;;;;;;;6.22;2.97;;;;;;;;;;5002540;28;20489;-77
2023/04/19 10:54:37;;;;;;;2.22;1.63;;;;;;;;;;5009697;28;20069;-74
2023/04/19 10:57:04;;;;;;;4.10;1.85;;;;;;;;;;5008060;28;20042;-72
2023/04/19 10:59:39;;;;;;;3.20;2.05;;;;;;;;;;5008755;28;20037;-75
2023/04/19 11:02:26;;;;;;;0.55;0.55;;;;;;;;;;4976703;28;20146;-74
2023/04/19 11:04:52;;;;;;;0.30;0.30;;;;;;;;;;4989547;28;20030;-74
2023/04/19 11:07:19;;;;;;;0.90;0.63;;;;;;;;;;5003873;28;20040;-75
2023/04/19 11:09:45;;;;;;;0.65;0.63;;;;;;;;;;5009282;28;20029;-76
2023/04/19 11:12:11;;;;;;;2.03;1.52;;;;;;;;;;5009319;28;20549;-77
2023/04/19 11:14:39;;;;;;;0.30;0.30;;;;;;;;;;5009076;28;20029;-75
2023/04/19 11:17:24;;;;;;;0.55;0.55;;;;;;;;;;4988364;28;20044;-75
2023/04/19 11:20:19;;;;;;;0.40;0.40;;;;;;;;;;4984514;28;20120;-77
2023/04/19 11:22:45;;;;;;;2.92;1.27;;;;;;;;;;4944135;28;20050;-76
2023/04/19 11:25:20;;;;;;;1.00;0.77;;;;;;;;;;4993648;28;20474;-74
2023/04/19 11:27:47;;;;;;;1.17;0.60;;;;;;;;;;4988059;28;20639;-76
2023/04/19 11:30:15;;;;;;;0.28;0.28;;;;;;;;;;5008521;28;20034;-78
2023/04/19 11:32:45;;;;;;;0.50;0.47;;;;;;;;;;5008706;28;20033;-76
2023/04/19 11:35:11;;;;;;;1.95;1.23;;;;;;;;;;4990215;28;20026;-76
2023/04/19 11:37:37;;;;;;;1.80;1.10;;;;;;;;;;5008013;28;20037;-77
2023/04/19 11:40:03;;;;;;;1.27;1.02;;;;;;;;;;4995363;28;20042;-76
2023/04/19 11:42:29;;;;;;;0.43;0.43;;;;;;;;;;4990934;28;20044;-76
2023/04/19 11:44:56;;;;;;;1.95;1.00;;;;;;;;;;5013009;28;20038;-77
2023/04/19 11:47:21;;;;;;;0.98;0.82;;;;;;;;;;5010833;28;20100;-76
2023/04/19 11:49:47;;;;;;;0.63;0.45;;;;;;;;;;5005733;28;20022;-76
2023/04/19 11:52:19;;;;;;;2.90;1.30;;;;;;;;;;4994475;28;20157;-76
2023/04/19 11:54:45;;;;;;;0.50;0.45;;;;;;;;;;5011202;28;20465;-76
2023/04/19 11:57:11;;;;;;;1.98;1.25;;;;;;;;;;5011640;28;20119;-76
2023/04/19 11:59:36;;;;;;;0.52;0.52;;;;;;;;;;5012408;28;20057;-75
2023/04/19 12:02:09;;;;;;;0.43;0.43;;;;;;;;;;5012244;28;20123;-77
2023/04/19 12:04:35;;;;;;;1.95;1.15;;;;;;;;;;4995165;28;20391;-75
2023/04/19 12:07:01;;;;;;;3.83;1.23;;;;;;;;;;5011931;28;20026;-78
2023/04/19 12:09:27;;;;;;;0.38;0.38;;;;;;;;;;5012616;28;20034;-76
2023/04/19 12:11:52;;;;;;;0.35;0.35;;;;;;;;;;5012397;28;20044;-76
2023/04/19 12:14:20;;;;;;;0.77;0.77;;;;;;;;;;5011496;28;20034;-75
2023/04/19 12:17:02;;;;;;;1.20;0.88;;;;;;;;;;5010105;28;20109;-74
2023/04/19 12:19:33;;;;;;;0.88;0.73;;;;;;;;;;5009654;28;20030;-76
2023/04/19 12:22:06;;;;;;;1.85;1.00;;;;;;;;;;5006188;28;20025;-76
2023/04/19 12:24:33;;;;;;;0.32;0.32;;;;;;;;;;4991789;28;20077;-76
2023/04/19 12:26:59;;;;;;;1.00;0.73;;;;;;;;;;4992701;28;20529;-76
2023/04/19 12:29:25;;;;;;;2.55;1.30;;;;;;;;;;4991162;28;20125;-76
2023/04/19 12:31:50;;;;;;;2.63;0.63;;;;;;;;;;5003895;28;20466;-74
2023/04/19 12:34:16;;;;;;;2.38;1.40;;;;;;;;;;5011937;28;20109;-74
2023/04/19 12:36:41;;;;;;;0.70;0.57;;;;;;;;;;5004335;28;20052;-77
2023/04/19 12:39:07;;;;;;;0.20;0.20;;;;;;;;;;4993759;28;20485;-75
2023/04/19 12:41:32;;;;;;;0.30;0.30;;;;;;;;;;5011667;28;20125;-76
2023/04/19 12:43:58;;;;;;;0.50;0.50;;;;;;;;;;5011582;28;20034;-75
2023/04/19 12:46:23;;;;;;;0.70;0.68;;;;;;;;;;5011787;28;20496;-76
2023/04/19 12:48:49;;;;;;;0.73;0.57;;;;;;;;;;4993536;28;20038;-75
2023/04/19 12:51:14;;;;;;;0.52;0.52;;;;;;;;;;5011623;28;20045;-77
2023/04/19 12:53:40;;;;;;;1.13;0.80;;;;;;;;;;5011571;28;20034;-77
2023/04/19 12:56:06;;;;;;;11.32;1.10;;;;;;;;;;4993669;28;20034;-77
2023/04/19 12:58:31;;;;;;;0.73;0.60;;;;;;;;;;4993913;28;20030;-75
2023/04/19 13:00:57;;;;;;;1.35;0.50;;;;;;;;;;5011550;28;20132;-78
2023/04/19 13:03:22;;;;;;;0.77;0.73;;;;;;;;;;5011329;28;20076;-75
2023/04/19 13:05:48;;;;;;;0.20;0.20;;;;;;;;;;5011557;28;20501;-75
2023/04/19 13:08:13;;;;;;;0.35;0.35;;;;;;;;;;4986208;28;20445;-75
2023/04/19 13:10:38;;;;;;;0.28;0.28;;;;;;;;;;4992638;28;20787;-75
2023/04/19 13:13:04;;;;;;;1.27;0.85;;;;;;;;;;4991857;28;20092;-75
2023/04/19 13:15:29;;;;;;;0.32;0.32;;;;;;;;;;4974450;28;20030;-75
2023/04/19 13:17:55;;;;;;;0.30;0.30;;;;;;;;;;4990994;28;20069;-77
2023/04/19 13:20:21;;;;;;;0.30;0.30;;;;;;;;;;4991309;28;20041;-76
2023/04/19 13:22:46;;;;;;;1.20;0.80;;;;;;;;;;4992124;28;20054;-74
2023/04/19 13:25:12;;;;;;;0.75;0.60;;;;;;;;;;4991470;28;20041;-75
2023/04/19 13:27:37;;;;;;;0.90;0.60;;;;;;;;;;4994170;28;20037;-75
2023/04/19 13:30:02;;;;;;;1.55;1.15;;;;;;;;;;4988996;28;20026;-75
2023/04/19 13:32:28;;;;;;;0.60;0.60;;;;;;;;;;4993545;28;20061;-75
2023/04/19 13:34:53;;;;;;;1.13;0.85;;;;;;;;;;5009683;28;20037;-74
2023/04/19 13:37:19;;;;;;;0.47;0.47;;;;;;;;;;4967559;28;20034;-76
2023/04/19 13:39:45;;;;;;;0.43;0.43;;;;;;;;;;5006133;28;20026;-75
2023/04/19 13:42:11;;;;;;;2.75;0.85;;;;;;;;;;5008603;28;20040;-75
2023/04/19 13:44:36;;;;;;;1.38;0.90;;;;;;;;;;4998139;28;20025;-76
2023/04/19 13:47:02;;;;;;;0.70;0.50;;;;;;;;;;4990613;28;20030;-76
2023/04/19 13:49:27;;;;;;;0.28;0.28;;;;;;;;;;4988480;28;20478;-76
2023/04/19 13:51:53;;;;;;;0.10;0.10;;;;;;;;;;4988035;28;20026;-75
2023/04/19 13:54:18;;;;;;;0.65;0.65;;;;;;;;;;4989386;28;20388;-75
2023/04/19 13:56:44;;;;;;;0.10;0.10;;;;;;;;;;4973955;28;20045;-75
2023/04/19 13:59:09;;;;;;;0.75;0.70;;;;;;;;;;4997869;28;20045;-76
2023/04/19 14:01:35;;;;;;;0.25;0.25;;;;;;;;;;4990722;28;20545;-74
2023/04/19 14:04:01;;;;;;;0.90;0.68;;;;;;;;;;5006904;28;20062;-74
2023/04/19 14:06:26;;;;;;;0.55;0.45;;;;;;;;;;5008144;28;20033;-74
2023/04/19 14:08:52;;;;;;;1.15;0.80;;;;;;;;;;5009264;28;20107;-74
2023/04/19 14:11:17;;;;;;;0.20;0.20;;;;;;;;;;4990998;28;20069;-74
2023/04/19 14:13:44;;;;;;;1.38;0.88;;;;;;;;;;5007709;28;20053;-74
2023/04/19 14:16:09;;;;;;;0.85;0.70;;;;;;;;;;4981908;28;20761;-73
2023/04/19 14:18:35;;;;;;;1.55;0.52;;;;;;;;;;4983112;28;20050;-74
2023/04/19 14:21:00;;;;;;;1.63;1.10;;;;;;;;;;5008517;28;20042;-77
2023/04/19 14:23:26;;;;;;;3.08;1.00;;;;;;;;;;5006590;28;20076;-74
2023/04/19 14:25:51;;;;;;;4.07;1.00;;;;;;;;;;5006942;28;20041;-75
2023/04/19 14:28:17;;;;;;;1.63;0.73;;;;;;;;;;5008026;28;20026;-76
2023/04/19 14:30:43;;;;;;;2.22;1.10;;;;;;;;;;5000068;28;20042;-75
2023/04/19 14:33:08;;;;;;;0.25;0.25;;;;;;;;;;4981489;28;20113;-74
2023/04/19 14:35:34;;;;;;;0.35;0.35;;;;;;;;;;4994849;28;20057;-74
2023/04/19 14:38:00;;;;;;;1.48;0.98;;;;;;;;;;5007220;28;20068;-74
2023/04/19 14:40:25;;;;;;;1.73;0.73;;;;;;;;;;4990404;28;20532;-74